createdAt,value
2022-09-30T00:01:45.499Z,100203.56
2022-09-30T00:04:20.979Z,100203.63
2022-09-30T00:06:48.461Z,100206.66
2022-09-30T00:09:16.685Z,100208.22
2022-09-30T00:11:44.322Z,100213.25
2022-09-30T00:14:18.411Z,100221.75
2022-09-30T00:16:46.208Z,100225.72
2022-09-30T00:19:13.576Z,100227.19
2022-09-30T00:21:40.941Z,100225.53
2022-09-30T00:24:08.279Z,100225.31
2022-09-30T00:26:35.583Z,100220.94
2022-09-30T00:29:03.615Z,100223.13
2022-09-30T00:31:33.617Z,100230.38
2022-09-30T00:34:11.600Z,100233.09
2022-09-30T00:36:48.037Z,100230.56
2022-09-30T00:39:18.991Z,100230.44
2022-09-30T00:41:48.373Z,100237.22
2022-09-30T00:44:46.110Z,100233.38
2022-09-30T00:47:16.147Z,100241.13
2022-09-30T00:49:43.106Z,100233.09
2022-09-30T00:52:10.055Z,100233.44
2022-09-30T00:54:37.000Z,100237.63
2022-09-30T00:57:04.850Z,100240.69
2022-09-30T00:59:44.848Z,100245.22
2022-09-30T01:02:13.157Z,100237.22
2022-09-30T01:04:42.152Z,100242.97
2022-09-30T01:07:10.350Z,100241.09
2022-09-30T01:09:40.643Z,100244.00
2022-09-30T01:12:14.452Z,100248.53
2022-09-30T01:14:42.744Z,100253.41
2022-09-30T01:17:13.278Z,100243.63
2022-09-30T01:19:52.365Z,100232.81
2022-09-30T01:22:27.751Z,100237.53
2022-09-30T01:25:23.833Z,100241.63
2022-09-30T01:27:50.618Z,100243.75
2022-09-30T01:31:02.551Z,100250.53
2022-09-30T01:33:49.673Z,100239.63
2022-09-30T01:36:59.525Z,100247.31
2022-09-30T01:39:29.094Z,100253.94
2022-09-30T01:42:18.636Z,100242.81
2022-09-30T01:45:11.098Z,100247.63
2022-09-30T01:47:38.041Z,100249.69
2022-09-30T01:50:39.807Z,100248.72
2022-09-30T01:53:16.911Z,100249.53
2022-09-30T01:56:00.254Z,100262.56
2022-09-30T01:59:08.525Z,100272.53
2022-09-30T02:02:02.232Z,100259.34
2022-09-30T02:04:41.276Z,100269.22
2022-09-30T02:07:14.792Z,100269.06
2022-09-30T02:09:49.690Z,100266.47
2022-09-30T02:12:21.466Z,100270.00
2022-09-30T02:14:56.541Z,100274.31
2022-09-30T02:17:25.828Z,100282.69
2022-09-30T02:20:10.637Z,100284.97
2022-09-30T02:22:45.871Z,100290.84
2022-09-30T02:25:27.382Z,100300.06
2022-09-30T02:27:58.647Z,100292.00
2022-09-30T02:30:25.834Z,100297.94
2022-09-30T02:33:03.576Z,100303.72
2022-09-30T02:35:30.455Z,100306.50
2022-09-30T02:38:05.766Z,100305.69
2022-09-30T02:40:55.515Z,100304.72
2022-09-30T02:43:22.825Z,100309.31
2022-09-30T02:46:03.000Z,100306.47
2022-09-30T02:48:40.279Z,100304.88
2022-09-30T02:51:15.449Z,100300.91
2022-09-30T02:53:49.626Z,100302.78
2022-09-30T02:56:34.711Z,100302.41
2022-09-30T02:59:01.769Z,100309.47
2022-09-30T03:01:30.332Z,100299.91
2022-09-30T03:04:00.949Z,100297.72
2022-09-30T03:06:28.122Z,100303.81
2022-09-30T03:08:55.204Z,100304.03
2022-09-30T03:11:25.208Z,100314.00
2022-09-30T03:14:04.398Z,100316.81
2022-09-30T03:17:04.287Z,100317.81
2022-09-30T03:19:47.545Z,100312.78
2022-09-30T03:22:33.651Z,100310.16
2022-09-30T03:25:15.089Z,100311.84
2022-09-30T03:28:05.028Z,100321.69
2022-09-30T03:30:38.276Z,100318.84
2022-09-30T03:33:09.904Z,100326.22
2022-09-30T03:35:58.393Z,100327.78
2022-09-30T03:38:40.332Z,100327.97
2022-09-30T03:41:16.888Z,100326.28
2022-09-30T03:43:47.517Z,100331.94
2022-09-30T03:46:32.859Z,100332.50
2022-09-30T03:49:04.359Z,100341.34
2022-09-30T03:51:32.297Z,100353.53
2022-09-30T03:53:59.629Z,100340.41
2022-09-30T03:56:31.899Z,100343.19
2022-09-30T03:58:59.071Z,100336.88
2022-09-30T04:01:25.986Z,100340.00
2022-09-30T04:03:53.946Z,100342.66
2022-09-30T04:06:23.486Z,100341.78
2022-09-30T04:08:54.005Z,100338.78
2022-09-30T04:11:20.970Z,100340.38
2022-09-30T04:13:47.936Z,100351.25
2022-09-30T04:16:14.882Z,100351.91
2022-09-30T04:18:42.438Z,100346.81
2022-09-30T04:21:11.892Z,100355.34
2022-09-30T04:23:41.087Z,100355.97
2022-09-30T04:26:11.204Z,100354.34
2022-09-30T04:28:38.185Z,100359.50
2022-09-30T04:31:06.440Z,100361.75
2022-09-30T04:33:33.777Z,100365.94
2022-09-30T04:36:01.392Z,100378.91
2022-09-30T04:38:29.259Z,100370.19
2022-09-30T04:40:56.892Z,100376.06
2022-09-30T04:43:25.103Z,100383.84
2022-09-30T04:45:53.230Z,100390.19
2022-09-30T04:48:22.696Z,100393.66
2022-09-30T04:50:50.123Z,100402.66
2022-09-30T04:53:18.491Z,100408.56
2022-09-30T04:55:46.274Z,100406.66
2022-09-30T04:58:13.954Z,100403.16
2022-09-30T05:00:40.911Z,100414.22
2022-09-30T05:03:07.825Z,100412.75
2022-09-30T05:05:34.807Z,100410.28
2022-09-30T05:08:03.207Z,100409.00
2022-09-30T05:10:30.484Z,100416.22
2022-09-30T05:13:00.818Z,100413.81
2022-09-30T05:15:27.790Z,100399.25
2022-09-30T05:17:54.901Z,100410.75
2022-09-30T05:20:21.993Z,100397.03
2022-09-30T05:22:54.843Z,100405.81
2022-09-30T05:25:21.923Z,100410.59
2022-09-30T05:27:50.082Z,100405.50
2022-09-30T05:30:17.118Z,100414.59
2022-09-30T05:32:44.258Z,100413.97
2022-09-30T05:35:12.241Z,100421.78
2022-09-30T05:37:39.214Z,100419.47
2022-09-30T05:40:07.877Z,100417.78
2022-09-30T05:42:37.051Z,100413.47
2022-09-30T05:45:07.443Z,100406.47
2022-09-30T05:47:34.723Z,100402.47
2022-09-30T05:50:01.624Z,100407.59
2022-09-30T05:52:29.722Z,100414.00
2022-09-30T05:54:59.171Z,100423.50
2022-09-30T05:57:26.093Z,100423.34
2022-09-30T05:59:52.977Z,100431.66
2022-09-30T06:02:20.065Z,100439.50
2022-09-30T06:04:47.180Z,100436.63
2022-09-30T06:07:14.134Z,100443.94
2022-09-30T06:09:41.074Z,100438.94
2022-09-30T06:12:08.364Z,100446.81
2022-09-30T06:14:35.473Z,100436.34
2022-09-30T06:17:02.428Z,100444.19
2022-09-30T06:19:30.429Z,100445.13
2022-09-30T06:21:58.549Z,100445.28
2022-09-30T06:24:26.223Z,100450.69
2022-09-30T06:26:53.189Z,100447.69
2022-09-30T06:29:20.224Z,100451.63
2022-09-30T06:31:47.263Z,100456.25
2022-09-30T06:34:14.293Z,100461.03
2022-09-30T06:36:41.141Z,100471.75
2022-09-30T06:39:11.543Z,100483.41
2022-09-30T06:41:43.624Z,100481.34
2022-09-30T06:44:13.186Z,100486.69
2022-09-30T06:46:51.711Z,100491.69
2022-09-30T06:49:20.895Z,100491.53
2022-09-30T06:51:47.818Z,100510.00
2022-09-30T06:54:14.837Z,100506.09
2022-09-30T06:56:42.016Z,100500.75
2022-09-30T06:59:08.989Z,100505.25
2022-09-30T07:01:36.302Z,100511.84
2022-09-30T07:04:08.273Z,100519.97
2022-09-30T07:06:35.555Z,100521.06
2022-09-30T07:09:02.555Z,100513.13
2022-09-30T07:11:29.457Z,100523.75
2022-09-30T07:13:57.611Z,100522.63
2022-09-30T07:16:25.887Z,100519.41
2022-09-30T07:18:54.129Z,100525.53
2022-09-30T07:21:21.006Z,100521.03
2022-09-30T07:23:48.289Z,100526.19
2022-09-30T07:26:23.720Z,100520.38
2022-09-30T07:28:51.795Z,100514.50
2022-09-30T07:31:34.186Z,100522.09
2022-09-30T07:34:03.795Z,100512.91
2022-09-30T07:36:33.594Z,100517.09
2022-09-30T07:39:06.010Z,100513.09
2022-09-30T07:41:36.067Z,100513.19
2022-09-30T07:44:06.455Z,100513.66
2022-09-30T07:46:35.591Z,100517.09
2022-09-30T07:49:04.651Z,100513.63
2022-09-30T07:51:35.487Z,100507.19
2022-09-30T07:54:07.340Z,100510.31
2022-09-30T07:56:57.851Z,100502.53
2022-09-30T07:59:22.655Z,100500.53
2022-09-30T08:01:50.960Z,100511.78
2022-09-30T08:04:19.822Z,100510.81
2022-09-30T08:06:49.762Z,100522.38
2022-09-30T08:09:19.577Z,100520.97
2022-09-30T08:11:46.970Z,100513.97
2022-09-30T08:14:19.390Z,100515.47
2022-09-30T08:16:46.704Z,100504.97
2022-09-30T08:19:16.783Z,100509.94
2022-09-30T08:21:44.718Z,100523.16
2022-09-30T08:24:12.415Z,100520.56
2022-09-30T08:26:39.930Z,100516.97
2022-09-30T08:29:06.966Z,100530.28
2022-09-30T08:31:34.067Z,100521.19
2022-09-30T08:34:03.170Z,100520.78
2022-09-30T08:36:30.932Z,100526.31
2022-09-30T08:38:58.157Z,100527.72
2022-09-30T08:41:54.089Z,100525.22
2022-09-30T08:44:41.656Z,100526.22
2022-09-30T08:47:08.697Z,100537.59
2022-09-30T08:49:57.003Z,100536.50
2022-09-30T08:52:48.256Z,100547.03
2022-09-30T08:55:23.137Z,100552.34
2022-09-30T08:57:52.273Z,100547.00
2022-09-30T09:00:20.282Z,100544.09
2022-09-30T09:02:57.426Z,100545.09
2022-09-30T09:05:33.024Z,100550.00
2022-09-30T09:08:37.390Z,100553.13
2022-09-30T09:11:21.245Z,100556.72
2022-09-30T09:14:02.872Z,100568.19
2022-09-30T09:17:03.311Z,100564.00
2022-09-30T09:19:38.705Z,100561.81
2022-09-30T09:22:07.719Z,100557.31
2022-09-30T09:24:34.547Z,100558.31
2022-09-30T09:27:26.867Z,100564.16
2022-09-30T09:29:56.657Z,100561.97
2022-09-30T09:32:27.779Z,100561.34
2022-09-30T09:35:12.838Z,100565.53
2022-09-30T09:38:17.175Z,100564.16
2022-09-30T09:41:17.660Z,100550.44
2022-09-30T09:43:56.403Z,100557.97
2022-09-30T09:46:38.247Z,100551.28
2022-09-30T09:49:16.156Z,100547.97
2022-09-30T09:52:15.290Z,100548.28
2022-09-30T09:54:42.229Z,100556.03
2022-09-30T09:57:24.967Z,100548.09
2022-09-30T10:00:23.130Z,100556.22
2022-09-30T10:03:28.059Z,100548.25
2022-09-30T10:06:05.635Z,100540.50
2022-09-30T10:08:35.753Z,100540.50
2022-09-30T10:11:05.763Z,100546.31
2022-09-30T10:13:38.596Z,100536.47
2022-09-30T10:16:05.993Z,100541.56
2022-09-30T10:18:37.518Z,100543.19
2022-09-30T10:21:23.140Z,100542.41
2022-09-30T10:23:50.808Z,100535.44
2022-09-30T10:29:01.504Z,100539.81
2022-09-30T10:31:35.709Z,100534.56
2022-09-30T10:34:34.725Z,100533.19
2022-09-30T10:37:07.602Z,100537.41
2022-09-30T10:39:37.792Z,100532.44
2022-09-30T10:42:26.248Z,100521.50
2022-09-30T10:44:57.923Z,100530.13
2022-09-30T10:47:27.560Z,100523.50
2022-09-30T10:50:01.173Z,100530.75
2022-09-30T10:52:32.526Z,100520.28
2022-09-30T10:55:13.255Z,100523.16
2022-09-30T10:57:42.754Z,100519.88
2022-09-30T11:00:22.827Z,100530.59
2022-09-30T11:03:14.957Z,100522.16
2022-09-30T11:05:44.400Z,100520.09
2022-09-30T11:08:50.228Z,100513.81
2022-09-30T11:11:29.305Z,100517.66
2022-09-30T11:14:23.231Z,100515.28
2022-09-30T11:17:09.534Z,100518.81
2022-09-30T11:19:57.299Z,100512.81
2022-09-30T11:22:34.357Z,100527.25
2022-09-30T11:25:01.498Z,100526.84
2022-09-30T11:27:43.157Z,100521.16
2022-09-30T11:30:20.748Z,100528.88
2022-09-30T11:33:19.677Z,100524.72
2022-09-30T11:35:56.622Z,100529.09
2022-09-30T11:38:43.804Z,100534.94
2022-09-30T11:41:31.053Z,100532.09
2022-09-30T11:44:30.776Z,100531.03
2022-09-30T11:47:03.417Z,100538.22
2022-09-30T11:49:41.890Z,100543.16
2022-09-30T11:52:36.649Z,100545.25
2022-09-30T11:55:30.555Z,100541.66
2022-09-30T11:58:28.518Z,100540.44
2022-09-30T12:01:09.807Z,100538.66
2022-09-30T12:03:42.730Z,100551.28
2022-09-30T12:06:27.798Z,100540.78
2022-09-30T12:09:00.061Z,100537.16
2022-09-30T12:11:40.356Z,100546.13
2022-09-30T12:14:20.808Z,100552.06
2022-09-30T12:16:49.119Z,100553.38
2022-09-30T12:19:24.590Z,100531.81
2022-09-30T12:22:02.141Z,100535.03
2022-09-30T12:24:40.877Z,100532.16
2022-09-30T12:27:15.203Z,100527.88
2022-09-30T12:30:11.764Z,100544.19
2022-09-30T12:33:11.055Z,100552.22
2022-09-30T12:35:52.995Z,100552.66
2022-09-30T12:38:57.112Z,100557.41
2022-09-30T12:41:45.644Z,100554.03
2022-09-30T12:45:02.022Z,100544.34
2022-09-30T12:47:53.162Z,100547.19
2022-09-30T12:50:26.033Z,100557.31
2022-09-30T12:52:53.044Z,100550.38
2022-09-30T12:55:31.712Z,100555.41
2022-09-30T12:58:01.828Z,100553.03
2022-09-30T13:00:35.021Z,100543.63
2022-09-30T13:03:17.831Z,100559.31
2022-09-30T13:05:52.318Z,100557.91
2022-09-30T13:08:24.272Z,100552.88
2022-09-30T13:11:00.553Z,100558.63
2022-09-30T13:13:34.072Z,100554.44
2022-09-30T13:16:06.965Z,100556.50
2022-09-30T13:18:34.030Z,100557.00
2022-09-30T13:21:08.579Z,100560.06
2022-09-30T13:23:45.727Z,100584.06
2022-09-30T13:26:28.211Z,100576.00
2022-09-30T13:29:15.841Z,100571.50
2022-09-30T13:31:45.745Z,100570.06
2022-09-30T13:34:21.878Z,100576.38
2022-09-30T13:36:51.571Z,100568.59
2022-09-30T13:39:20.762Z,100567.41
2022-09-30T13:42:16.917Z,100575.81
2022-09-30T13:45:02.661Z,100571.13
2022-09-30T13:47:50.726Z,100569.22
2022-09-30T13:50:24.051Z,100570.53
2022-09-30T13:52:55.716Z,100587.22
2022-09-30T13:55:36.203Z,100571.19
2022-09-30T13:58:27.766Z,100577.88
2022-09-30T14:01:10.656Z,100587.91
2022-09-30T14:03:52.710Z,100585.63
2022-09-30T14:06:51.671Z,100576.06
2022-09-30T14:09:24.666Z,100586.38
2022-09-30T14:12:00.678Z,100586.94
2022-09-30T14:14:46.026Z,100582.66
2022-09-30T14:17:32.558Z,100582.78
2022-09-30T14:21:03.847Z,100579.09
2022-09-30T14:23:30.766Z,100581.69
2022-09-30T14:26:13.673Z,100589.91
2022-09-30T14:28:52.964Z,100578.16
2022-09-30T14:31:20.194Z,100579.66
2022-09-30T14:33:50.119Z,100581.09
2022-09-30T14:39:11.106Z,100584.13
2022-09-30T14:41:41.237Z,100587.59
2022-09-30T14:44:17.732Z,100591.28
2022-09-30T14:46:47.254Z,100592.84
2022-09-30T14:49:18.905Z,100601.72
2022-09-30T14:51:48.615Z,100590.13
2022-09-30T14:54:30.679Z,100597.69
2022-09-30T14:57:00.602Z,100588.69
2022-09-30T14:59:33.261Z,100600.97
2022-09-30T15:02:20.436Z,100602.50
2022-09-30T15:04:51.221Z,100607.06
2022-09-30T15:07:18.469Z,100615.84
2022-09-30T15:09:47.388Z,100612.44
2022-09-30T15:12:18.421Z,100609.31
2022-09-30T15:14:53.539Z,100617.41
2022-09-30T15:17:46.878Z,100628.03
2022-09-30T15:20:30.523Z,100624.94
2022-09-30T15:23:03.566Z,100632.53
2022-09-30T15:25:31.615Z,100626.31
2022-09-30T15:27:59.642Z,100642.59
2022-09-30T15:30:33.183Z,100649.81
2022-09-30T15:33:06.352Z,100649.78
2022-09-30T15:35:33.495Z,100652.59
2022-09-30T15:38:26.450Z,100652.03
2022-09-30T15:41:03.388Z,100657.72
2022-09-30T15:43:36.422Z,100662.44
2022-09-30T15:46:17.320Z,100664.34
2022-09-30T15:48:45.000Z,100673.88
2022-09-30T15:51:32.867Z,100678.66
2022-09-30T15:54:02.021Z,100681.25
2022-09-30T15:56:37.037Z,100685.81
2022-09-30T15:59:08.780Z,100678.34
2022-09-30T16:01:41.635Z,100688.09
2022-09-30T16:04:17.564Z,100697.22
2022-09-30T16:07:08.326Z,100692.16
2022-09-30T16:09:38.112Z,100697.59
2022-09-30T16:12:13.032Z,100707.63
2022-09-30T16:14:50.110Z,100709.22
2022-09-30T16:17:22.511Z,100705.06
2022-09-30T16:19:54.865Z,100709.09
2022-09-30T16:22:48.338Z,100716.63
2022-09-30T16:25:28.112Z,100724.91
2022-09-30T16:28:12.830Z,100730.00
2022-09-30T16:30:44.782Z,100726.69
2022-09-30T16:33:14.618Z,100729.44
2022-09-30T16:35:42.988Z,100733.06
2022-09-30T16:38:13.972Z,100727.63
2022-09-30T16:40:41.126Z,100734.91
2022-09-30T16:43:12.002Z,100726.88
2022-09-30T16:45:43.875Z,100729.09
2022-09-30T16:48:18.689Z,100728.13
2022-09-30T16:51:14.013Z,100733.19
2022-09-30T16:53:41.903Z,100739.78
2022-09-30T16:56:16.667Z,100734.28
2022-09-30T16:58:44.261Z,100739.00
2022-09-30T17:01:20.129Z,100739.50
2022-09-30T17:03:47.242Z,100741.84
2022-09-30T17:06:17.357Z,100745.81
2022-09-30T17:08:45.442Z,100746.94
2022-09-30T17:11:12.408Z,100754.69
2022-09-30T17:13:40.154Z,100751.06
2022-09-30T17:16:08.097Z,100754.09
2022-09-30T17:18:34.983Z,100752.69
2022-09-30T17:21:01.872Z,100755.81
2022-09-30T17:23:28.898Z,100761.91
2022-09-30T17:25:55.909Z,100760.00
2022-09-30T17:28:22.801Z,100761.91
2022-09-30T17:30:50.577Z,100761.56
2022-09-30T17:33:21.147Z,100770.94
2022-09-30T17:36:01.102Z,100766.78
2022-09-30T17:38:28.864Z,100772.13
2022-09-30T17:41:14.523Z,100773.63
2022-09-30T17:43:41.724Z,100768.16
2022-09-30T17:46:09.064Z,100770.41
2022-09-30T17:48:37.390Z,100770.22
2022-09-30T17:51:06.144Z,100775.44
2022-09-30T17:53:33.436Z,100774.00
2022-09-30T17:56:03.378Z,100772.22
2022-09-30T17:58:30.358Z,100780.19
2022-09-30T18:01:00.400Z,100768.97
2022-09-30T18:03:28.342Z,100775.53
2022-09-30T18:05:58.914Z,100774.44
2022-09-30T18:08:27.717Z,100781.22
2022-09-30T18:10:57.427Z,100788.50
2022-09-30T18:13:25.370Z,100788.06
2022-09-30T18:15:52.317Z,100794.50
2022-09-30T18:18:19.317Z,100792.25
2022-09-30T18:20:50.387Z,100790.84
2022-09-30T18:23:21.212Z,100798.81
2022-09-30T18:25:49.802Z,100795.25
2022-09-30T18:28:17.661Z,100807.81
2022-09-30T18:30:46.738Z,100802.78
2022-09-30T18:33:17.436Z,100805.22
2022-09-30T18:35:44.971Z,100805.53
2022-09-30T18:38:13.507Z,100811.16
2022-09-30T18:40:44.106Z,100814.06
2022-09-30T18:43:14.377Z,100818.44
2022-09-30T18:45:44.917Z,100816.69
2022-09-30T18:48:12.117Z,100817.00
2022-09-30T18:50:39.064Z,100816.38
2022-09-30T18:53:09.939Z,100816.63
2022-09-30T18:55:38.401Z,100815.97
2022-09-30T18:58:05.409Z,100816.63
2022-09-30T19:00:32.472Z,100823.91
2022-09-30T19:02:59.435Z,100825.34
2022-09-30T19:05:26.573Z,100820.09
2022-09-30T19:07:54.341Z,100819.38
2022-09-30T19:10:21.287Z,100822.75
2022-09-30T19:12:49.687Z,100817.03
2022-09-30T19:15:16.627Z,100816.63
2022-09-30T19:17:45.009Z,100820.47
2022-09-30T19:20:15.354Z,100815.22
2022-09-30T19:22:42.511Z,100824.03
2022-09-30T19:25:11.852Z,100827.66
2022-09-30T19:27:41.021Z,100827.47
2022-09-30T19:30:13.777Z,100829.84
2022-09-30T19:32:41.258Z,100838.19
2022-09-30T19:35:11.880Z,100846.34
2022-09-30T19:37:47.809Z,100855.13
2022-09-30T19:40:22.280Z,100845.50
2022-09-30T19:42:50.038Z,100840.50
2022-09-30T19:45:19.426Z,100840.19
2022-09-30T19:47:48.393Z,100843.06
2022-09-30T19:50:15.347Z,100844.78
2022-09-30T19:52:54.083Z,100850.81
2022-09-30T19:55:23.528Z,100846.88
2022-09-30T19:57:50.456Z,100856.75
2022-09-30T20:00:17.497Z,100859.00
2022-09-30T20:02:44.432Z,100849.13
2022-09-30T20:05:11.557Z,100848.97
2022-09-30T20:07:38.488Z,100851.28
2022-09-30T20:10:06.447Z,100844.56
2022-09-30T20:12:33.345Z,100852.44
2022-09-30T20:15:18.898Z,100849.16
2022-09-30T20:17:45.921Z,100847.22
2022-09-30T20:20:31.211Z,100850.38
2022-09-30T20:23:00.218Z,100856.69
2022-09-30T20:25:27.928Z,100844.41
2022-09-30T20:27:54.867Z,100851.44
2022-09-30T20:30:21.781Z,100848.88
2022-09-30T20:32:48.692Z,100850.84
2022-09-30T20:35:15.574Z,100859.34
2022-09-30T20:37:42.555Z,100858.81
2022-09-30T20:40:09.826Z,100865.88
2022-09-30T20:42:38.512Z,100856.81
2022-09-30T20:45:10.768Z,100862.16
2022-09-30T20:47:43.909Z,100870.63
2022-09-30T20:50:12.834Z,100878.06
2022-09-30T20:52:39.940Z,100883.06
2022-09-30T20:55:08.179Z,100871.19
2022-09-30T20:57:35.066Z,100879.19
2022-09-30T21:00:02.310Z,100880.41
2022-09-30T21:02:29.523Z,100894.19
2022-09-30T21:05:01.125Z,100898.31
2022-09-30T21:07:28.191Z,100901.66
2022-09-30T21:09:55.101Z,100908.72
2022-09-30T21:12:22.062Z,100906.13
2022-09-30T21:14:49.191Z,100895.00
2022-09-30T21:17:16.143Z,100891.34
2022-09-30T21:19:43.786Z,100887.41
2022-09-30T21:22:11.268Z,100880.34
2022-09-30T21:24:38.276Z,100886.06
2022-09-30T21:27:06.156Z,100883.78
2022-09-30T21:29:33.393Z,100887.53
2022-09-30T21:32:00.793Z,100886.69
2022-09-30T21:34:28.190Z,100888.75
2022-09-30T21:36:55.130Z,100888.22
2022-09-30T21:39:21.990Z,100892.38
2022-09-30T21:41:52.039Z,100902.06
2022-09-30T21:44:18.957Z,100902.47
2022-09-30T21:46:48.890Z,100908.31
2022-09-30T21:49:21.402Z,100903.94
2022-09-30T21:51:48.313Z,100915.38
2022-09-30T21:54:15.515Z,100922.28
2022-09-30T21:56:43.725Z,100929.16
2022-09-30T21:59:11.329Z,100929.78
2022-09-30T22:01:38.736Z,100931.56
2022-09-30T22:04:06.799Z,100934.53
2022-09-30T22:06:33.799Z,100942.97
2022-09-30T22:09:01.714Z,100946.09
2022-09-30T22:11:30.360Z,100951.69
2022-09-30T22:13:59.224Z,100946.34
2022-09-30T22:16:29.859Z,100953.44
2022-09-30T22:19:02.395Z,100957.16
2022-09-30T22:21:32.516Z,100946.25
2022-09-30T22:24:01.634Z,100954.94
2022-09-30T22:26:28.892Z,100953.50
2022-09-30T22:28:58.343Z,100961.28
2022-09-30T22:31:27.658Z,100962.72
2022-09-30T22:34:17.305Z,100955.84
2022-09-30T22:37:02.931Z,100956.84
2022-09-30T22:39:30.702Z,100951.47
2022-09-30T22:41:58.770Z,100954.38
2022-09-30T22:44:32.583Z,100951.72
2022-09-30T22:47:00.375Z,100951.47
2022-09-30T22:49:28.706Z,100959.63
2022-09-30T22:51:57.062Z,100958.75
2022-09-30T22:54:26.369Z,100959.72
2022-09-30T22:56:55.058Z,100954.72
2022-09-30T22:59:23.637Z,100954.13
2022-09-30T23:01:51.058Z,100966.84
2022-09-30T23:04:18.845Z,100970.66
2022-09-30T23:06:53.838Z,100972.75
2022-09-30T23:09:20.974Z,100967.56
2022-09-30T23:11:48.919Z,100962.38
2022-09-30T23:14:16.511Z,100966.09
2022-09-30T23:16:43.466Z,100976.06
2022-09-30T23:19:10.364Z,100969.03
2022-09-30T23:21:37.577Z,100971.75
2022-09-30T23:24:04.887Z,100977.00
2022-09-30T23:26:31.846Z,100974.91
2022-09-30T23:29:01.024Z,100980.03
2022-09-30T23:31:28.897Z,100978.69
2022-09-30T23:33:58.116Z,100971.28
2022-09-30T23:36:29.495Z,100982.59
2022-09-30T23:39:04.412Z,100989.06
2022-09-30T23:41:32.878Z,100979.13
2022-09-30T23:44:01.277Z,100992.31
2022-09-30T23:46:28.230Z,100990.00
2022-09-30T23:48:55.169Z,100990.16
2022-09-30T23:51:22.050Z,100988.19
2022-09-30T23:53:49.773Z,100989.09
2022-09-30T23:56:18.559Z,100999.66
2022-09-30T23:58:46.519Z,100997.91
